sensor_id;sensor_type;location;lat;lon;timestamp;P1;durP1;ratioP1;P2;durP2;ratioP2
10132;SDS011;5106;50.926;7.080;2023-05-25T00:00:51;8.07;;;4.60;;
10132;SDS011;5106;50.926;7.080;2023-05-25T00:03:16;7.97;;;4.60;;
10132;SDS011;5106;50.926;7.080;2023-05-25T00:05:44;9.75;;;4.60;;
10132;SDS011;5106;50.926;7.080;2023-05-25T00:08:09;7.53;;;4.53;;
10132;SDS011;5106;50.926;7.080;2023-05-25T00:10:35;6.82;;;4.03;;
10132;SDS011;5106;50.926;7.080;2023-05-25T00:13:00;7.05;;;4.68;;
10132;SDS011;5106;50.926;7.080;2023-05-25T00:15:26;8.35;;;4.75;;
10132;SDS011;5106;50.926;7.080;2023-05-25T00:17:52;5.90;;;4.18;;
10132;SDS011;5106;50.926;7.080;2023-05-25T00:20:19;7.70;;;4.53;;
10132;SDS011;5106;50.926;7.080;2023-05-25T00:22:44;8.37;;;4.43;;
10132;SDS011;5106;50.926;7.080;2023-05-25T00:25:10;6.70;;;4.60;;
10132;SDS011;5106;50.926;7.080;2023-05-25T00:27:36;8.43;;;4.75;;
10132;SDS011;5106;50.926;7.080;2023-05-25T00:30:02;8.93;;;4.45;;
10132;SDS011;5106;50.926;7.080;2023-05-25T00:32:28;7.53;;;4.28;;
10132;SDS011;5106;50.926;7.080;2023-05-25T00:34:53;8.65;;;4.72;;
10132;SDS011;5106;50.926;7.080;2023-05-25T00:37:19;5.85;;;4.22;;
10132;SDS011;5106;50.926;7.080;2023-05-25T00:39:45;6.55;;;4.55;;
10132;SDS011;5106;50.926;7.080;2023-05-25T00:42:11;8.52;;;4.53;;
10132;SDS011;5106;50.926;7.080;2023-05-25T00:44:36;5.95;;;4.15;;
10132;SDS011;5106;50.926;7.080;2023-05-25T00:47:02;7.90;;;4.80;;
10132;SDS011;5106;50.926;7.080;2023-05-25T00:49:29;8.95;;;4.88;;
10132;SDS011;5106;50.926;7.080;2023-05-25T00:51:58;6.38;;;4.38;;
10132;SDS011;5106;50.926;7.080;2023-05-25T00:54:23;6.40;;;4.72;;
10132;SDS011;5106;50.926;7.080;2023-05-25T00:56:54;7.80;;;4.20;;
10132;SDS011;5106;50.926;7.080;2023-05-25T00:59:30;8.03;;;4.50;;
10132;SDS011;5106;50.926;7.080;2023-05-25T01:02:01;8.77;;;4.50;;
10132;SDS011;5106;50.926;7.080;2023-05-25T01:04:30;6.70;;;4.47;;
10132;SDS011;5106;50.926;7.080;2023-05-25T01:07:18;7.97;;;4.57;;
10132;SDS011;5106;50.926;7.080;2023-05-25T01:09:50;8.30;;;4.53;;
10132;SDS011;5106;50.926;7.080;2023-05-25T01:12:22;8.37;;;4.57;;
10132;SDS011;5106;50.926;7.080;2023-05-25T01:14:51;8.73;;;4.63;;
10132;SDS011;5106;50.926;7.080;2023-05-25T01:17:19;8.77;;;4.28;;
10132;SDS011;5106;50.926;7.080;2023-05-25T01:19:45;6.80;;;4.22;;
10132;SDS011;5106;50.926;7.080;2023-05-25T01:27:19;7.40;;;4.40;;
10132;SDS011;5106;50.926;7.080;2023-05-25T01:29:56;6.60;;;4.23;;
10132;SDS011;5106;50.926;7.080;2023-05-25T01:32:23;15.63;;;4.17;;
10132;SDS011;5106;50.926;7.080;2023-05-25T01:34:49;7.83;;;4.23;;
10132;SDS011;5106;50.926;7.080;2023-05-25T01:37:17;8.23;;;4.77;;
10132;SDS011;5106;50.926;7.080;2023-05-25T01:39:43;7.03;;;4.40;;
10132;SDS011;5106;50.926;7.080;2023-05-25T01:42:09;8.33;;;4.67;;
10132;SDS011;5106;50.926;7.080;2023-05-25T01:44:35;7.40;;;4.57;;
10132;SDS011;5106;50.926;7.080;2023-05-25T01:47:04;7.13;;;4.57;;
10132;SDS011;5106;50.926;7.080;2023-05-25T01:52:35;7.50;;;4.50;;
10132;SDS011;5106;50.926;7.080;2023-05-25T01:55:05;9.23;;;4.57;;
10132;SDS011;5106;50.926;7.080;2023-05-25T01:57:36;7.00;;;4.23;;
10132;SDS011;5106;50.926;7.080;2023-05-25T02:00:03;6.57;;;4.20;;
10132;SDS011;5106;50.926;7.080;2023-05-25T02:02:30;7.97;;;4.97;;
10132;SDS011;5106;50.926;7.080;2023-05-25T02:04:57;9.13;;;4.87;;
10132;SDS011;5106;50.926;7.080;2023-05-25T02:07:23;7.80;;;4.53;;
10132;SDS011;5106;50.926;7.080;2023-05-25T02:09:49;7.37;;;4.80;;
10132;SDS011;5106;50.926;7.080;2023-05-25T02:12:15;6.47;;;4.57;;
10132;SDS011;5106;50.926;7.080;2023-05-25T02:14:41;10.50;;;4.33;;
10132;SDS011;5106;50.926;7.080;2023-05-25T02:17:06;8.50;;;4.70;;
10132;SDS011;5106;50.926;7.080;2023-05-25T02:19:32;6.47;;;4.37;;
10132;SDS011;5106;50.926;7.080;2023-05-25T02:21:58;8.83;;;4.53;;
10132;SDS011;5106;50.926;7.080;2023-05-25T02:24:24;7.37;;;4.20;;
10132;SDS011;5106;50.926;7.080;2023-05-25T02:26:50;5.07;;;4.00;;
10132;SDS011;5106;50.926;7.080;2023-05-25T02:29:15;7.40;;;4.50;;
10132;SDS011;5106;50.926;7.080;2023-05-25T02:31:41;7.77;;;4.33;;
10132;SDS011;5106;50.926;7.080;2023-05-25T02:34:07;6.43;;;4.63;;
10132;SDS011;5106;50.926;7.080;2023-05-25T02:36:32;6.07;;;4.27;;
10132;SDS011;5106;50.926;7.080;2023-05-25T02:39:01;8.03;;;4.73;;
10132;SDS011;5106;50.926;7.080;2023-05-25T02:41:27;6.10;;;4.43;;
10132;SDS011;5106;50.926;7.080;2023-05-25T02:43:52;7.93;;;4.03;;
10132;SDS011;5106;50.926;7.080;2023-05-25T02:46:18;5.13;;;4.10;;
10132;SDS011;5106;50.926;7.080;2023-05-25T02:48:44;6.40;;;4.40;;
10132;SDS011;5106;50.926;7.080;2023-05-25T02:51:10;6.53;;;4.27;;
10132;SDS011;5106;50.926;7.080;2023-05-25T02:53:36;6.07;;;4.37;;
10132;SDS011;5106;50.926;7.080;2023-05-25T02:56:02;6.90;;;4.50;;
10132;SDS011;5106;50.926;7.080;2023-05-25T02:58:29;6.90;;;4.50;;
10132;SDS011;5106;50.926;7.080;2023-05-25T03:00:55;5.97;;;4.40;;
10132;SDS011;5106;50.926;7.080;2023-05-25T03:03:23;6.83;;;4.30;;
10132;SDS011;5106;50.926;7.080;2023-05-25T03:05:49;5.80;;;4.27;;
10132;SDS011;5106;50.926;7.080;2023-05-25T03:08:15;9.03;;;4.37;;
10132;SDS011;5106;50.926;7.080;2023-05-25T03:10:41;6.57;;;4.13;;
10132;SDS011;5106;50.926;7.080;2023-05-25T03:13:06;5.70;;;4.20;;
10132;SDS011;5106;50.926;7.080;2023-05-25T03:15:32;6.90;;;4.40;;
10132;SDS011;5106;50.926;7.080;2023-05-25T03:17:57;7.63;;;4.37;;
10132;SDS011;5106;50.926;7.080;2023-05-25T03:20:25;6.07;;;3.90;;
10132;SDS011;5106;50.926;7.080;2023-05-25T03:22:51;7.23;;;4.40;;
10132;SDS011;5106;50.926;7.080;2023-05-25T03:25:17;6.03;;;4.37;;
10132;SDS011;5106;50.926;7.080;2023-05-25T03:27:42;6.70;;;4.57;;
10132;SDS011;5106;50.926;7.080;2023-05-25T03:30:08;6.80;;;4.30;;
10132;SDS011;5106;50.926;7.080;2023-05-25T03:32:34;8.17;;;4.67;;
10132;SDS011;5106;50.926;7.080;2023-05-25T03:35:00;6.27;;;4.10;;
10132;SDS011;5106;50.926;7.080;2023-05-25T03:37:27;7.93;;;4.53;;
10132;SDS011;5106;50.926;7.080;2023-05-25T03:39:53;6.57;;;4.57;;
10132;SDS011;5106;50.926;7.080;2023-05-25T03:42:18;7.00;;;4.10;;
10132;SDS011;5106;50.926;7.080;2023-05-25T03:44:44;6.30;;;4.50;;
10132;SDS011;5106;50.926;7.080;2023-05-25T03:47:10;5.50;;;4.00;;
10132;SDS011;5106;50.926;7.080;2023-05-25T03:49:36;5.37;;;4.33;;
10132;SDS011;5106;50.926;7.080;2023-05-25T03:52:02;7.87;;;4.90;;
10132;SDS011;5106;50.926;7.080;2023-05-25T03:54:27;8.87;;;4.60;;
10132;SDS011;5106;50.926;7.080;2023-05-25T03:56:53;6.93;;;4.50;;
10132;SDS011;5106;50.926;7.080;2023-05-25T03:59:20;6.77;;;4.20;;
10132;SDS011;5106;50.926;7.080;2023-05-25T04:01:46;6.83;;;4.73;;
10132;SDS011;5106;50.926;7.080;2023-05-25T04:04:11;7.40;;;4.83;;
10132;SDS011;5106;50.926;7.080;2023-05-25T04:06:37;6.13;;;4.63;;
10132;SDS011;5106;50.926;7.080;2023-05-25T04:09:03;6.27;;;4.47;;
10132;SDS011;5106;50.926;7.080;2023-05-25T04:11:29;8.93;;;4.90;;
10132;SDS011;5106;50.926;7.080;2023-05-25T04:13:54;7.97;;;4.83;;
10132;SDS011;5106;50.926;7.080;2023-05-25T04:16:20;7.20;;;4.40;;
10132;SDS011;5106;50.926;7.080;2023-05-25T04:18:46;7.97;;;4.63;;
10132;SDS011;5106;50.926;7.080;2023-05-25T04:21:11;9.13;;;4.50;;
10132;SDS011;5106;50.926;7.080;2023-05-25T04:23:37;9.03;;;5.30;;
10132;SDS011;5106;50.926;7.080;2023-05-25T04:26:02;9.73;;;5.00;;
10132;SDS011;5106;50.926;7.080;2023-05-25T04:28:29;5.93;;;4.83;;
10132;SDS011;5106;50.926;7.080;2023-05-25T04:30:56;5.53;;;4.50;;
10132;SDS011;5106;50.926;7.080;2023-05-25T04:33:22;8.47;;;4.80;;
10132;SDS011;5106;50.926;7.080;2023-05-25T04:35:48;6.63;;;4.90;;
10132;SDS011;5106;50.926;7.080;2023-05-25T04:38:14;6.20;;;4.70;;
10132;SDS011;5106;50.926;7.080;2023-05-25T04:40:41;5.27;;;4.13;;
10132;SDS011;5106;50.926;7.080;2023-05-25T04:43:07;8.20;;;5.13;;
10132;SDS011;5106;50.926;7.080;2023-05-25T04:45:35;6.93;;;5.03;;
10132;SDS011;5106;50.926;7.080;2023-05-25T04:48:00;7.27;;;5.63;;
10132;SDS011;5106;50.926;7.080;2023-05-25T04:50:27;10.17;;;5.60;;
10132;SDS011;5106;50.926;7.080;2023-05-25T04:52:52;9.67;;;5.87;;
10132;SDS011;5106;50.926;7.080;2023-05-25T04:55:18;8.77;;;5.10;;
10132;SDS011;5106;50.926;7.080;2023-05-25T04:57:44;10.50;;;5.43;;
10132;SDS011;5106;50.926;7.080;2023-05-25T05:00:09;6.70;;;5.27;;
10132;SDS011;5106;50.926;7.080;2023-05-25T05:02:36;10.33;;;5.80;;
10132;SDS011;5106;50.926;7.080;2023-05-25T05:05:02;8.03;;;6.03;;
10132;SDS011;5106;50.926;7.080;2023-05-25T05:07:27;9.67;;;6.13;;
10132;SDS011;5106;50.926;7.080;2023-05-25T05:09:53;11.10;;;6.03;;
10132;SDS011;5106;50.926;7.080;2023-05-25T05:12:19;10.33;;;6.43;;
10132;SDS011;5106;50.926;7.080;2023-05-25T05:14:45;8.93;;;6.10;;
10132;SDS011;5106;50.926;7.080;2023-05-25T05:17:13;15.43;;;6.30;;
10132;SDS011;5106;50.926;7.080;2023-05-25T05:19:39;16.43;;;6.53;;
10132;SDS011;5106;50.926;7.080;2023-05-25T05:22:04;9.80;;;6.40;;
10132;SDS011;5106;50.926;7.080;2023-05-25T05:24:32;11.43;;;6.77;;
10132;SDS011;5106;50.926;7.080;2023-05-25T05:26:58;9.43;;;6.57;;
10132;SDS011;5106;50.926;7.080;2023-05-25T05:29:23;12.23;;;6.97;;
10132;SDS011;5106;50.926;7.080;2023-05-25T05:31:50;11.73;;;6.97;;
10132;SDS011;5106;50.926;7.080;2023-05-25T05:34:16;14.40;;;7.77;;
10132;SDS011;5106;50.926;7.080;2023-05-25T05:36:42;15.88;;;7.88;;
10132;SDS011;5106;50.926;7.080;2023-05-25T05:39:07;10.27;;;6.97;;
10132;SDS011;5106;50.926;7.080;2023-05-25T05:41:33;15.00;;;7.97;;
10132;SDS011;5106;50.926;7.080;2023-05-25T05:43:59;13.67;;;7.73;;
10132;SDS011;5106;50.926;7.080;2023-05-25T05:46:25;12.57;;;8.27;;
10132;SDS011;5106;50.926;7.080;2023-05-25T05:48:51;14.27;;;8.67;;
10132;SDS011;5106;50.926;7.080;2023-05-25T05:51:16;18.10;;;9.07;;
10132;SDS011;5106;50.926;7.080;2023-05-25T05:53:42;17.77;;;9.85;;
10132;SDS011;5106;50.926;7.080;2023-05-25T05:56:15;15.30;;;9.88;;
10132;SDS011;5106;50.926;7.080;2023-05-25T05:58:42;15.30;;;9.15;;
10132;SDS011;5106;50.926;7.080;2023-05-25T06:01:08;15.07;;;9.43;;
10132;SDS011;5106;50.926;7.080;2023-05-25T06:03:33;14.52;;;9.48;;
10132;SDS011;5106;50.926;7.080;2023-05-25T06:05:59;13.25;;;9.43;;
10132;SDS011;5106;50.926;7.080;2023-05-25T06:08:25;15.40;;;8.93;;
10132;SDS011;5106;50.926;7.080;2023-05-25T06:10:51;16.33;;;10.32;;
10132;SDS011;5106;50.926;7.080;2023-05-25T06:13:17;17.20;;;9.43;;
10132;SDS011;5106;50.926;7.080;2023-05-25T06:15:42;18.77;;;9.50;;
10132;SDS011;5106;50.926;7.080;2023-05-25T06:18:08;18.75;;;9.95;;
10132;SDS011;5106;50.926;7.080;2023-05-25T06:20:33;16.45;;;10.45;;
10132;SDS011;5106;50.926;7.080;2023-05-25T06:22:59;15.50;;;9.50;;
10132;SDS011;5106;50.926;7.080;2023-05-25T06:25:25;17.70;;;9.45;;
10132;SDS011;5106;50.926;7.080;2023-05-25T06:27:51;13.77;;;8.38;;
10132;SDS011;5106;50.926;7.080;2023-05-25T06:30:16;18.38;;;9.07;;
10132;SDS011;5106;50.926;7.080;2023-05-25T06:32:42;18.30;;;9.25;;
10132;SDS011;5106;50.926;7.080;2023-05-25T06:35:07;13.60;;;8.93;;
10132;SDS011;5106;50.926;7.080;2023-05-25T06:37:34;18.63;;;10.00;;
10132;SDS011;5106;50.926;7.080;2023-05-25T06:40:02;17.25;;;9.18;;
10132;SDS011;5106;50.926;7.080;2023-05-25T06:42:29;14.85;;;9.27;;
10132;SDS011;5106;50.926;7.080;2023-05-25T06:44:54;19.30;;;10.20;;
10132;SDS011;5106;50.926;7.080;2023-05-25T06:47:20;16.38;;;8.98;;
10132;SDS011;5106;50.926;7.080;2023-05-25T06:49:46;19.40;;;9.00;;
10132;SDS011;5106;50.926;7.080;2023-05-25T06:52:11;17.52;;;8.75;;
10132;SDS011;5106;50.926;7.080;2023-05-25T06:54:37;17.08;;;9.40;;
10132;SDS011;5106;50.926;7.080;2023-05-25T06:57:02;12.88;;;8.70;;
10132;SDS011;5106;50.926;7.080;2023-05-25T06:59:28;17.05;;;8.60;;
10132;SDS011;5106;50.926;7.080;2023-05-25T07:01:53;13.30;;;8.40;;
10132;SDS011;5106;50.926;7.080;2023-05-25T07:04:20;12.48;;;8.40;;
10132;SDS011;5106;50.926;7.080;2023-05-25T07:06:46;18.17;;;8.98;;
10132;SDS011;5106;50.926;7.080;2023-05-25T07:09:12;17.65;;;9.60;;
10132;SDS011;5106;50.926;7.080;2023-05-25T07:11:37;19.75;;;9.15;;
10132;SDS011;5106;50.926;7.080;2023-05-25T07:14:03;16.50;;;9.65;;
10132;SDS011;5106;50.926;7.080;2023-05-25T07:16:28;16.50;;;8.70;;
10132;SDS011;5106;50.926;7.080;2023-05-25T07:18:55;16.55;;;8.45;;
10132;SDS011;5106;50.926;7.080;2023-05-25T07:21:21;16.60;;;8.32;;
10132;SDS011;5106;50.926;7.080;2023-05-25T07:23:47;14.77;;;8.48;;
10132;SDS011;5106;50.926;7.080;2023-05-25T07:26:12;20.15;;;9.40;;
10132;SDS011;5106;50.926;7.080;2023-05-25T07:28:38;15.50;;;9.23;;
10132;SDS011;5106;50.926;7.080;2023-05-25T07:31:04;17.25;;;8.65;;
10132;SDS011;5106;50.926;7.080;2023-05-25T07:33:29;13.32;;;8.10;;
10132;SDS011;5106;50.926;7.080;2023-05-25T07:35:55;12.65;;;7.82;;
10132;SDS011;5106;50.926;7.080;2023-05-25T07:38:20;16.70;;;8.52;;
10132;SDS011;5106;50.926;7.080;2023-05-25T07:40:46;14.63;;;8.15;;
10132;SDS011;5106;50.926;7.080;2023-05-25T07:43:13;18.85;;;8.63;;
10132;SDS011;5106;50.926;7.080;2023-05-25T07:45:38;15.80;;;7.97;;
10132;SDS011;5106;50.926;7.080;2023-05-25T07:48:04;14.85;;;7.20;;
10132;SDS011;5106;50.926;7.080;2023-05-25T07:50:31;12.93;;;6.97;;
10132;SDS011;5106;50.926;7.080;2023-05-25T07:52:57;14.48;;;7.93;;
10132;SDS011;5106;50.926;7.080;2023-05-25T07:55:24;18.65;;;8.70;;
10132;SDS011;5106;50.926;7.080;2023-05-25T07:57:50;14.00;;;7.28;;
10132;SDS011;5106;50.926;7.080;2023-05-25T08:00:16;14.98;;;7.22;;
10132;SDS011;5106;50.926;7.080;2023-05-25T08:02:42;16.08;;;7.95;;
10132;SDS011;5106;50.926;7.080;2023-05-25T08:05:09;11.73;;;7.10;;
10132;SDS011;5106;50.926;7.080;2023-05-25T08:07:34;12.80;;;6.32;;
10132;SDS011;5106;50.926;7.080;2023-05-25T08:10:00;14.27;;;6.80;;
10132;SDS011;5106;50.926;7.080;2023-05-25T08:12:26;13.43;;;7.13;;
10132;SDS011;5106;50.926;7.080;2023-05-25T08:14:53;12.73;;;7.05;;
10132;SDS011;5106;50.926;7.080;2023-05-25T08:17:19;13.00;;;6.65;;
10132;SDS011;5106;50.926;7.080;2023-05-25T08:19:46;11.82;;;6.40;;
10132;SDS011;5106;50.926;7.080;2023-05-25T08:22:11;11.88;;;6.20;;
10132;SDS011;5106;50.926;7.080;2023-05-25T08:24:37;11.73;;;5.75;;
10132;SDS011;5106;50.926;7.080;2023-05-25T08:27:03;11.48;;;6.35;;
10132;SDS011;5106;50.926;7.080;2023-05-25T08:29:29;12.88;;;6.40;;
10132;SDS011;5106;50.926;7.080;2023-05-25T08:31:55;13.48;;;6.65;;
10132;SDS011;5106;50.926;7.080;2023-05-25T08:34:20;14.93;;;6.60;;
10132;SDS011;5106;50.926;7.080;2023-05-25T08:36:46;11.98;;;5.40;;
10132;SDS011;5106;50.926;7.080;2023-05-25T08:39:12;13.15;;;6.20;;
10132;SDS011;5106;50.926;7.080;2023-05-25T08:41:44;11.15;;;5.82;;
10132;SDS011;5106;50.926;7.080;2023-05-25T08:44:10;13.38;;;6.38;;
10132;SDS011;5106;50.926;7.080;2023-05-25T08:46:38;14.48;;;6.97;;
10132;SDS011;5106;50.926;7.080;2023-05-25T08:49:07;13.73;;;6.75;;
10132;SDS011;5106;50.926;7.080;2023-05-25T08:51:35;12.98;;;6.82;;
10132;SDS011;5106;50.926;7.080;2023-05-25T08:54:16;14.95;;;6.25;;
10132;SDS011;5106;50.926;7.080;2023-05-25T08:56:54;11.40;;;5.30;;
10132;SDS011;5106;50.926;7.080;2023-05-25T08:59:27;10.27;;;4.93;;
10132;SDS011;5106;50.926;7.080;2023-05-25T09:01:55;9.65;;;4.75;;
10132;SDS011;5106;50.926;7.080;2023-05-25T09:04:26;12.48;;;4.40;;
10132;SDS011;5106;50.926;7.080;2023-05-25T09:06:53;11.40;;;4.80;;
10132;SDS011;5106;50.926;7.080;2023-05-25T09:09:19;10.20;;;5.50;;
10132;SDS011;5106;50.926;7.080;2023-05-25T09:11:45;12.50;;;5.45;;
10132;SDS011;5106;50.926;7.080;2023-05-25T09:14:11;9.15;;;5.22;;
10132;SDS011;5106;50.926;7.080;2023-05-25T09:16:38;8.00;;;4.93;;
10132;SDS011;5106;50.926;7.080;2023-05-25T09:19:04;7.80;;;4.50;;
10132;SDS011;5106;50.926;7.080;2023-05-25T09:21:29;13.15;;;5.22;;
10132;SDS011;5106;50.926;7.080;2023-05-25T09:23:55;9.25;;;4.65;;
10132;SDS011;5106;50.926;7.080;2023-05-25T09:26:22;9.65;;;4.63;;
10132;SDS011;5106;50.926;7.080;2023-05-25T09:28:47;8.40;;;4.50;;
10132;SDS011;5106;50.926;7.080;2023-05-25T09:31:13;9.90;;;4.40;;
10132;SDS011;5106;50.926;7.080;2023-05-25T09:33:39;8.48;;;4.10;;
10132;SDS011;5106;50.926;7.080;2023-05-25T09:36:05;10.57;;;4.28;;
10132;SDS011;5106;50.926;7.080;2023-05-25T09:38:31;9.13;;;4.30;;
10132;SDS011;5106;50.926;7.080;2023-05-25T09:40:57;9.48;;;4.90;;
10132;SDS011;5106;50.926;7.080;2023-05-25T09:43:23;6.53;;;4.07;;
10132;SDS011;5106;50.926;7.080;2023-05-25T09:45:51;9.32;;;4.18;;
10132;SDS011;5106;50.926;7.080;2023-05-25T09:48:16;6.82;;;3.38;;
10132;SDS011;5106;50.926;7.080;2023-05-25T09:50:42;6.53;;;3.65;;
10132;SDS011;5106;50.926;7.080;2023-05-25T09:53:08;7.53;;;3.75;;
10132;SDS011;5106;50.926;7.080;2023-05-25T09:55:35;6.32;;;3.63;;
10132;SDS011;5106;50.926;7.080;2023-05-25T09:58:01;8.10;;;3.40;;
10132;SDS011;5106;50.926;7.080;2023-05-25T10:00:27;8.27;;;3.70;;
10132;SDS011;5106;50.926;7.080;2023-05-25T10:02:53;6.85;;;3.80;;
10132;SDS011;5106;50.926;7.080;2023-05-25T10:05:18;6.68;;;3.47;;
10132;SDS011;5106;50.926;7.080;2023-05-25T10:07:44;7.40;;;3.55;;
10132;SDS011;5106;50.926;7.080;2023-05-25T10:10:14;12.93;;;3.70;;
10132;SDS011;5106;50.926;7.080;2023-05-25T10:12:41;6.93;;;3.40;;
10132;SDS011;5106;50.926;7.080;2023-05-25T10:15:08;5.43;;;3.22;;
10132;SDS011;5106;50.926;7.080;2023-05-25T10:17:39;6.10;;;3.00;;
10132;SDS011;5106;50.926;7.080;2023-05-25T10:20:16;5.43;;;3.35;;
10132;SDS011;5106;50.926;7.080;2023-05-25T10:23:03;6.03;;;3.75;;
10132;SDS011;5106;50.926;7.080;2023-05-25T10:25:36;8.25;;;4.20;;
10132;SDS011;5106;50.926;7.080;2023-05-25T10:28:20;6.22;;;3.88;;
10132;SDS011;5106;50.926;7.080;2023-05-25T10:30:52;7.32;;;3.92;;
10132;SDS011;5106;50.926;7.080;2023-05-25T10:33:20;6.72;;;3.83;;
10132;SDS011;5106;50.926;7.080;2023-05-25T10:35:46;7.75;;;4.13;;
10132;SDS011;5106;50.926;7.080;2023-05-25T10:38:14;9.05;;;4.28;;
10132;SDS011;5106;50.926;7.080;2023-05-25T10:40:41;6.70;;;4.07;;
10132;SDS011;5106;50.926;7.080;2023-05-25T10:43:11;7.40;;;4.05;;
10132;SDS011;5106;50.926;7.080;2023-05-25T10:45:39;6.95;;;4.00;;
10132;SDS011;5106;50.926;7.080;2023-05-25T10:48:06;6.35;;;3.65;;
10132;SDS011;5106;50.926;7.080;2023-05-25T10:50:33;7.32;;;3.95;;
10132;SDS011;5106;50.926;7.080;2023-05-25T10:53:01;9.95;;;4.72;;
10132;SDS011;5106;50.926;7.080;2023-05-25T10:58:29;6.68;;;4.35;;
10132;SDS011;5106;50.926;7.080;2023-05-25T11:00:59;10.02;;;4.30;;
10132;SDS011;5106;50.926;7.080;2023-05-25T11:06:19;8.55;;;4.25;;
10132;SDS011;5106;50.926;7.080;2023-05-25T11:08:53;7.55;;;4.35;;
10132;SDS011;5106;50.926;7.080;2023-05-25T11:11:20;8.90;;;5.18;;
10132;SDS011;5106;50.926;7.080;2023-05-25T11:14:19;5.43;;;4.25;;
10132;SDS011;5106;50.926;7.080;2023-05-25T11:19:37;6.57;;;4.00;;
10132;SDS011;5106;50.926;7.080;2023-05-25T11:22:16;7.25;;;4.22;;
10132;SDS011;5106;50.926;7.080;2023-05-25T11:24:56;8.85;;;5.15;;
10132;SDS011;5106;50.926;7.080;2023-05-25T11:27:26;6.80;;;5.15;;
10132;SDS011;5106;50.926;7.080;2023-05-25T11:29:54;11.70;;;5.00;;
10132;SDS011;5106;50.926;7.080;2023-05-25T11:32:23;10.60;;;4.25;;
10132;SDS011;5106;50.926;7.080;2023-05-25T11:34:52;9.13;;;5.07;;
10132;SDS011;5106;50.926;7.080;2023-05-25T11:37:20;7.38;;;4.63;;
10132;SDS011;5106;50.926;7.080;2023-05-25T11:39:49;7.45;;;4.72;;
10132;SDS011;5106;50.926;7.080;2023-05-25T11:42:15;10.35;;;5.40;;
10132;SDS011;5106;50.926;7.080;2023-05-25T11:44:43;9.15;;;4.63;;
10132;SDS011;5106;50.926;7.080;2023-05-25T11:47:09;7.05;;;4.95;;
10132;SDS011;5106;50.926;7.080;2023-05-25T11:49:39;8.13;;;5.00;;
10132;SDS011;5106;50.926;7.080;2023-05-25T11:52:15;7.03;;;4.53;;
10132;SDS011;5106;50.926;7.080;2023-05-25T11:54:42;9.27;;;5.25;;
10132;SDS011;5106;50.926;7.080;2023-05-25T11:57:15;7.88;;;4.85;;
10132;SDS011;5106;50.926;7.080;2023-05-25T11:59:52;8.35;;;4.50;;
10132;SDS011;5106;50.926;7.080;2023-05-25T12:02:21;9.18;;;4.80;;
10132;SDS011;5106;50.926;7.080;2023-05-25T12:04:54;12.07;;;4.72;;
10132;SDS011;5106;50.926;7.080;2023-05-25T12:07:22;7.88;;;4.50;;
10132;SDS011;5106;50.926;7.080;2023-05-25T12:09:48;7.95;;;4.25;;
10132;SDS011;5106;50.926;7.080;2023-05-25T12:12:14;7.65;;;4.43;;
10132;SDS011;5106;50.926;7.080;2023-05-25T12:14:49;8.82;;;3.90;;
10132;SDS011;5106;50.926;7.080;2023-05-25T12:17:15;5.75;;;3.80;;
10132;SDS011;5106;50.926;7.080;2023-05-25T12:19:42;8.98;;;4.60;;
10132;SDS011;5106;50.926;7.080;2023-05-25T12:22:11;7.65;;;4.75;;
10132;SDS011;5106;50.926;7.080;2023-05-25T12:24:38;5.85;;;3.63;;
10132;SDS011;5106;50.926;7.080;2023-05-25T12:27:09;11.18;;;5.78;;
10132;SDS011;5106;50.926;7.080;2023-05-25T12:29:44;6.95;;;5.00;;
10132;SDS011;5106;50.926;7.080;2023-05-25T12:32:11;10.65;;;5.28;;
10132;SDS011;5106;50.926;7.080;2023-05-25T12:34:37;9.80;;;5.65;;
10132;SDS011;5106;50.926;7.080;2023-05-25T12:37:02;7.93;;;5.05;;
10132;SDS011;5106;50.926;7.080;2023-05-25T12:41:53;8.63;;;5.40;;
10132;SDS011;5106;50.926;7.080;2023-05-25T12:44:24;9.18;;;7.15;;
10132;SDS011;5106;50.926;7.080;2023-05-25T12:46:55;14.00;;;7.40;;
10132;SDS011;5106;50.926;7.080;2023-05-25T12:51:49;11.68;;;6.22;;
10132;SDS011;5106;50.926;7.080;2023-05-25T12:54:14;8.52;;;6.78;;
10132;SDS011;5106;50.926;7.080;2023-05-25T12:56:54;11.07;;;6.70;;
10132;SDS011;5106;50.926;7.080;2023-05-25T12:59:21;12.15;;;7.85;;
10132;SDS011;5106;50.926;7.080;2023-05-25T13:01:46;12.60;;;7.05;;
10132;SDS011;5106;50.926;7.080;2023-05-25T13:04:12;8.18;;;6.03;;
10132;SDS011;5106;50.926;7.080;2023-05-25T13:06:37;7.55;;;6.05;;
10132;SDS011;5106;50.926;7.080;2023-05-25T13:09:03;8.82;;;5.88;;
10132;SDS011;5106;50.926;7.080;2023-05-25T13:11:29;8.00;;;5.20;;
10132;SDS011;5106;50.926;7.080;2023-05-25T13:13:54;7.93;;;5.35;;
10132;SDS011;5106;50.926;7.080;2023-05-25T13:16:20;7.60;;;5.00;;
10132;SDS011;5106;50.926;7.080;2023-05-25T13:18:46;9.93;;;4.55;;
10132;SDS011;5106;50.926;7.080;2023-05-25T13:21:12;7.60;;;4.88;;
10132;SDS011;5106;50.926;7.080;2023-05-25T13:23:38;6.75;;;4.45;;
10132;SDS011;5106;50.926;7.080;2023-05-25T13:26:03;7.78;;;5.05;;
10132;SDS011;5106;50.926;7.080;2023-05-25T13:28:30;6.90;;;4.43;;
10132;SDS011;5106;50.926;7.080;2023-05-25T13:30:56;6.07;;;4.47;;
10132;SDS011;5106;50.926;7.080;2023-05-25T13:33:21;8.43;;;4.65;;
10132;SDS011;5106;50.926;7.080;2023-05-25T13:35:47;10.13;;;4.72;;
10132;SDS011;5106;50.926;7.080;2023-05-25T13:38:22;10.00;;;4.70;;
10132;SDS011;5106;50.926;7.080;2023-05-25T13:40:51;6.88;;;4.60;;
10132;SDS011;5106;50.926;7.080;2023-05-25T13:43:17;6.68;;;4.32;;
10132;SDS011;5106;50.926;7.080;2023-05-25T13:45:42;8.43;;;4.82;;
10132;SDS011;5106;50.926;7.080;2023-05-25T13:48:08;7.20;;;4.78;;
10132;SDS011;5106;50.926;7.080;2023-05-25T13:50:33;7.25;;;5.25;;
10132;SDS011;5106;50.926;7.080;2023-05-25T13:52:59;6.38;;;5.15;;
10132;SDS011;5106;50.926;7.080;2023-05-25T13:55:24;9.10;;;5.55;;
10132;SDS011;5106;50.926;7.080;2023-05-25T13:57:50;8.98;;;4.88;;
10132;SDS011;5106;50.926;7.080;2023-05-25T14:00:16;5.97;;;4.88;;
10132;SDS011;5106;50.926;7.080;2023-05-25T14:02:42;9.05;;;5.32;;
10132;SDS011;5106;50.926;7.080;2023-05-25T14:05:08;7.40;;;5.18;;
10132;SDS011;5106;50.926;7.080;2023-05-25T14:07:33;8.38;;;5.30;;
10132;SDS011;5106;50.926;7.080;2023-05-25T14:09:59;9.02;;;5.50;;
10132;SDS011;5106;50.926;7.080;2023-05-25T14:12:25;8.57;;;5.05;;
10132;SDS011;5106;50.926;7.080;2023-05-25T14:14:50;8.02;;;5.13;;
10132;SDS011;5106;50.926;7.080;2023-05-25T14:17:16;6.78;;;5.07;;
10132;SDS011;5106;50.926;7.080;2023-05-25T14:19:41;8.02;;;4.97;;
10132;SDS011;5106;50.926;7.080;2023-05-25T14:22:07;6.75;;;5.10;;
10132;SDS011;5106;50.926;7.080;2023-05-25T14:24:33;8.55;;;5.45;;
10132;SDS011;5106;50.926;7.080;2023-05-25T14:26:58;6.82;;;5.07;;
10132;SDS011;5106;50.926;7.080;2023-05-25T14:29:25;8.35;;;5.32;;
10132;SDS011;5106;50.926;7.080;2023-05-25T14:31:51;10.93;;;5.78;;
10132;SDS011;5106;50.926;7.080;2023-05-25T14:34:16;9.55;;;5.55;;
10132;SDS011;5106;50.926;7.080;2023-05-25T14:36:42;8.57;;;5.72;;
10132;SDS011;5106;50.926;7.080;2023-05-25T14:39:07;7.38;;;5.03;;
10132;SDS011;5106;50.926;7.080;2023-05-25T14:41:33;8.65;;;6.03;;
10132;SDS011;5106;50.926;7.080;2023-05-25T14:43:58;10.13;;;5.95;;
10132;SDS011;5106;50.926;7.080;2023-05-25T14:46:24;12.25;;;5.63;;
10132;SDS011;5106;50.926;7.080;2023-05-25T14:48:50;10.13;;;5.43;;
10132;SDS011;5106;50.926;7.080;2023-05-25T14:51:15;8.68;;;5.90;;
10132;SDS011;5106;50.926;7.080;2023-05-25T14:53:41;8.18;;;5.68;;
10132;SDS011;5106;50.926;7.080;2023-05-25T14:56:06;12.43;;;6.03;;
10132;SDS011;5106;50.926;7.080;2023-05-25T14:58:32;8.35;;;5.20;;
10132;SDS011;5106;50.926;7.080;2023-05-25T15:00:58;8.38;;;5.45;;
10132;SDS011;5106;50.926;7.080;2023-05-25T15:03:24;10.80;;;6.07;;
10132;SDS011;5106;50.926;7.080;2023-05-25T15:05:49;9.68;;;5.95;;
10132;SDS011;5106;50.926;7.080;2023-05-25T15:08:15;8.02;;;5.45;;
10132;SDS011;5106;50.926;7.080;2023-05-25T15:10:41;11.57;;;5.53;;
10132;SDS011;5106;50.926;7.080;2023-05-25T15:13:06;8.15;;;5.32;;
10132;SDS011;5106;50.926;7.080;2023-05-25T15:15:32;8.10;;;6.53;;